Time;durP1;ratioP1;P1;durP2;ratioP2;P2;SDS_P1;SDS_P2;PMS_P1;PMS_P2;Temp;Humidity;BMP_temperature;BMP_pressure;BME280_temperature;BME280_humidity;BME280_pressure;Samples;Min_cycle;Max_cycle;Signal;HPM_P1;HPM_P2
2024/02/27 00:02:07;;;;;;;;;;;;;;;7.37;99.70;95876.93;106889;1294;25444;-88
2024/02/27 00:04:34;;;;;;;;;;;;;;;7.40;99.29;95871.28;106989;1298;22545;-87
2024/02/27 00:07:00;;;;;;;;;;;;;;;7.38;98.76;95876.83;107002;1300;22583;-87
2024/02/27 00:09:27;;;;;;;;;;;;;;;7.39;98.52;95872.74;106856;1300;23321;-87
2024/02/27 00:11:54;;;;;;;;;;;;;;;7.50;98.76;95876.17;107144;1294;23931;-88
2024/02/27 00:14:20;;;;;;;;;;;;;;;7.55;98.56;95883.86;107102;1278;23140;-87
2024/02/27 00:16:46;;;;;;;;;;;;;;;7.54;98.50;95885.03;107112;1300;22541;-88
2024/02/27 00:19:13;;;;;;;;;;;;;;;7.50;98.60;95887.17;107025;1300;22546;-88
2024/02/27 00:21:39;;;;;;;;;;;;;;;7.44;98.90;95883.48;106784;1299;23320;-88
2024/02/27 00:24:06;;;;;;;;;;;;;;;7.42;98.88;95887.27;106981;1291;22554;-88
2024/02/27 00:26:32;;;;;;;;;;;;;;;7.39;98.97;95886.71;107125;1300;22501;-88
2024/02/27 00:28:58;;;;;;;;;;;;;;;7.37;99.24;95886.56;107036;1301;25441;-87
2024/02/27 00:31:25;;;;;;;;;;;;;;;7.34;99.46;95886.63;107129;1294;25409;-88
2024/02/27 00:33:55;;;;;;;;;;;;;;;7.33;99.54;95881.89;107093;1300;22584;-88
2024/02/27 00:36:21;;;;;;;;;;;;;;;7.34;99.53;95884.60;106980;1298;23022;-88
2024/02/27 00:38:48;;;;;;;;;;;;;;;7.48;98.05;95871.93;106937;1298;22564;-88
2024/02/27 00:41:14;;;;;;;;;;;;;;;7.79;98.97;95864.15;107151;1294;22549;-87
2024/02/27 00:43:41;;;;;;;;;;;;;;;7.84;98.88;95863.07;107048;1278;24018;-88
2024/02/27 00:46:08;;;;;;;;;;;;;;;7.85;98.16;95861.48;107080;1295;22661;-88
2024/02/27 00:48:34;;;;;;;;;;;;;;;7.90;97.44;95862.86;106807;1301;22526;-87
2024/02/27 00:51:00;;;;;;;;;;;;;;;7.98;97.94;95865.42;106874;1295;22548;-88
2024/02/27 00:53:27;;;;;;;;;;;;;;;7.96;97.75;95870.46;106972;1298;23224;-88
2024/02/27 00:55:53;;;;;;;;;;;;;;;7.92;97.94;95865.83;106997;1295;22547;-88
2024/02/27 00:58:22;;;;;;;;;;;;;;;7.87;98.06;95872.14;107004;1294;23977;-89
2024/02/27 01:00:48;;;;;;;;;;;;;;;7.88;95.67;95865.43;106975;1300;22513;-88
2024/02/27 01:03:15;;;;;;;;;;;;;;;8.10;96.07;95865.52;106914;1300;24190;-89
2024/02/27 01:05:41;;;;;;;;;;;;;;;8.19;96.64;95871.23;107071;1293;25427;-88
2024/02/27 01:08:08;;;;;;;;;;;;;;;8.15;96.73;95871.10;106876;1288;24439;-88
2024/02/27 01:10:34;;;;;;;;;;;;;;;8.11;96.75;95874.38;106999;1294;22526;-89
2024/02/27 01:13:00;;;;;;;;;;;;;;;8.06;96.89;95880.20;107011;1282;22555;-88
2024/02/27 01:15:27;;;;;;;;;;;;;;;8.02;96.75;95878.60;107098;1300;22551;-89
2024/02/27 01:17:53;;;;;;;;;;;;;;;7.98;96.72;95879.42;106998;1300;22538;-89
2024/02/27 01:20:20;;;;;;;;;;;;;;;7.96;97.02;95886.14;106998;1300;22499;-88
2024/02/27 01:22:46;;;;;;;;;;;;;;;7.94;97.12;95882.69;106867;1294;22560;-88
2024/02/27 01:25:12;;;;;;;;;;;;;;;7.90;97.01;95883.40;107008;1298;22570;-89
2024/02/27 01:27:39;;;;;;;;;;;;;;;7.89;97.09;95891.83;106877;1294;22530;-88
2024/02/27 01:30:06;;;;;;;;;;;;;;;7.87;97.48;95893.08;107012;1295;22504;-88
2024/02/27 01:32:32;;;;;;;;;;;;;;;7.83;97.53;95889.92;107068;1294;22836;-88
2024/02/27 01:34:59;;;;;;;;;;;;;;;7.80;97.36;95899.37;107000;1300;22533;-88
2024/02/27 01:37:25;;;;;;;;;;;;;;;7.81;97.52;95901.48;107003;1294;22553;-84
2024/02/27 01:39:52;;;;;;;;;;;;;;;7.82;97.89;95900.44;107086;1300;22520;-85
2024/02/27 01:42:19;;;;;;;;;;;;;;;7.81;97.72;95899.86;106950;1298;22529;-84
2024/02/27 01:44:47;;;;;;;;;;;;;;;7.80;97.70;95901.99;107001;1298;24071;-84
2024/02/27 01:47:14;;;;;;;;;;;;;;;7.79;96.19;95900.54;107114;1300;25425;-85
2024/02/27 01:49:40;;;;;;;;;;;;;;;7.93;96.65;95902.38;107106;1300;22638;-85
2024/02/27 01:52:07;;;;;;;;;;;;;;;7.98;96.98;95902.71;107135;1294;22554;-85
2024/02/27 01:54:33;;;;;;;;;;;;;;;7.97;96.81;95901.93;106973;1294;22527;-84
2024/02/27 01:57:00;;;;;;;;;;;;;;;7.95;96.92;95901.45;107047;1300;22567;-84
2024/02/27 01:59:26;;;;;;;;;;;;;;;7.96;96.59;95904.27;107120;1300;24200;-85
2024/02/27 02:01:52;;;;;;;;;;;;;;;7.97;96.57;95904.17;106847;1284;25310;-85
2024/02/27 02:04:19;;;;;;;;;;;;;;;7.97;96.15;95908.46;106988;1301;25288;-85
2024/02/27 02:06:45;;;;;;;;;;;;;;;7.98;96.11;95911.70;107045;1301;22560;-84
2024/02/27 02:09:12;;;;;;;;;;;;;;;7.96;95.98;95918.23;106971;1300;22559;-85
2024/02/27 02:11:39;;;;;;;;;;;;;;;7.96;96.06;95922.95;107058;1278;22564;-85
2024/02/27 02:14:06;;;;;;;;;;;;;;;7.95;95.83;95925.81;108351;1282;22434;-85
2024/02/27 02:16:32;;;;;;;;;;;;;;;7.94;96.09;95927.27;108396;1292;22402;-83
2024/02/27 02:18:58;;;;;;;;;;;;;;;7.94;95.82;95930.58;107760;1295;22610;-82
2024/02/27 02:21:25;;;;;;;;;;;;;;;7.92;95.84;95930.34;106944;1300;22569;-84
2024/02/27 02:23:52;;;;;;;;;;;;;;;7.86;95.51;95939.61;106924;1300;22557;-84
2024/02/27 02:26:18;;;;;;;;;;;;;;;7.78;95.49;95946.29;106894;1294;22557;-84
2024/02/27 02:28:44;;;;;;;;;;;;;;;7.75;95.54;95944.41;106962;1294;22578;-84
2024/02/27 02:31:11;;;;;;;;;;;;;;;7.71;95.24;95946.07;107093;1292;22566;-84
2024/02/27 02:33:40;;;;;;;;;;;;;;;7.70;95.24;95950.90;106886;1295;22585;-84
2024/02/27 02:36:08;;;;;;;;;;;;;;;7.69;95.53;95947.06;106891;1296;25382;-84
2024/02/27 02:38:34;;;;;;;;;;;;;;;7.67;95.39;95946.31;106980;1300;25423;-84
2024/02/27 02:41:01;;;;;;;;;;;;;;;7.64;95.54;95946.23;106889;1300;23326;-84
2024/02/27 02:43:27;;;;;;;;;;;;;;;7.63;95.67;95948.55;107167;1300;23282;-88
2024/02/27 02:45:54;;;;;;;;;;;;;;;7.64;95.48;95947.94;106913;1292;22577;-88
2024/02/27 02:48:20;;;;;;;;;;;;;;;7.66;95.67;95947.38;107160;1296;22532;-87
2024/02/27 02:50:46;;;;;;;;;;;;;;;7.66;95.73;95948.39;107158;1296;22579;-87
2024/02/27 02:53:13;;;;;;;;;;;;;;;7.70;95.21;95939.33;106990;1291;22632;-87
2024/02/27 02:55:42;;;;;;;;;;;;;;;7.73;95.89;95944.21;107156;1299;22564;-88
2024/02/27 02:58:09;;;;;;;;;;;;;;;7.73;95.46;95947.41;107157;1295;25111;-88
2024/02/27 03:00:35;;;;;;;;;;;;;;;7.75;95.62;95945.65;107115;1299;22979;-88
2024/02/27 03:03:02;;;;;;;;;;;;;;;7.76;95.45;95941.56;106877;1300;22520;-87
2024/02/27 03:05:29;;;;;;;;;;;;;;;7.80;94.81;95938.69;106913;1295;24241;-86
2024/02/27 03:07:55;;;;;;;;;;;;;;;7.84;95.69;95944.16;107013;1291;22542;-88
2024/02/27 03:10:22;;;;;;;;;;;;;;;7.84;95.45;95941.26;106985;1300;22590;-87
2024/02/27 03:12:48;;;;;;;;;;;;;;;7.84;95.37;95942.41;107046;1300;23961;-87
2024/02/27 03:15:14;;;;;;;;;;;;;;;7.84;95.69;95942.38;106806;1297;22523;-87
2024/02/27 03:17:41;;;;;;;;;;;;;;;7.85;95.00;95948.16;107225;1300;22556;-88
2024/02/27 03:20:10;;;;;;;;;;;;;;;7.87;95.18;95945.88;106895;1299;23314;-88
2024/02/27 03:22:36;;;;;;;;;;;;;;;7.88;95.97;95947.72;107040;1298;22595;-88
2024/02/27 03:25:06;;;;;;;;;;;;;;;7.86;95.86;95949.77;106897;1294;25415;-88
2024/02/27 03:27:32;;;;;;;;;;;;;;;7.86;95.84;95955.45;106738;1297;24330;-87
2024/02/27 03:29:59;;;;;;;;;;;;;;;7.86;95.74;95953.19;106964;1292;22566;-88
2024/02/27 03:32:25;;;;;;;;;;;;;;;7.87;96.07;95954.67;107188;1292;22523;-88
2024/02/27 03:34:52;;;;;;;;;;;;;;;7.90;96.02;95958.01;107086;1292;23913;-88
2024/02/27 03:37:21;;;;;;;;;;;;;;;7.91;96.19;95960.02;107024;1291;25335;-87
2024/02/27 03:39:48;;;;;;;;;;;;;;;7.92;96.24;95960.35;106982;1298;23679;-87
2024/02/27 03:42:15;;;;;;;;;;;;;;;7.91;96.28;95962.29;106935;1297;22549;-88
2024/02/27 03:44:47;;;;;;;;;;;;;;;7.92;96.40;95962.98;107096;1292;22572;-88
2024/02/27 03:47:14;;;;;;;;;;;;;;;7.92;96.54;95959.23;106813;1300;22535;-88
2024/02/27 03:49:40;;;;;;;;;;;;;;;7.92;96.43;95961.16;106876;1301;22618;-88
2024/02/27 03:52:07;;;;;;;;;;;;;;;7.94;96.08;95960.94;107046;1295;22606;-84
2024/02/27 03:54:33;;;;;;;;;;;;;;;7.95;96.28;95960.60;106982;1295;22543;-83
2024/02/27 03:57:00;;;;;;;;;;;;;;;7.94;96.26;95957.51;106874;1300;22574;-83
2024/02/27 03:59:26;;;;;;;;;;;;;;;7.93;96.21;95956.91;106727;1298;22552;-84
2024/02/27 04:01:53;;;;;;;;;;;;;;;7.95;95.50;95957.57;106992;1300;22513;-83
2024/02/27 04:04:19;;;;;;;;;;;;;;;7.99;95.77;95961.59;107086;1300;25205;-83
2024/02/27 04:06:46;;;;;;;;;;;;;;;7.95;95.66;95962.99;106994;1283;22562;-83
2024/02/27 04:09:12;;;;;;;;;;;;;;;7.87;95.62;95972.81;107066;1300;22520;-83
2024/02/27 04:11:38;;;;;;;;;;;;;;;7.81;95.65;95968.37;107082;1293;22544;-83
2024/02/27 04:14:05;;;;;;;;;;;;;;;7.80;95.76;95976.57;107053;1300;22515;-83
2024/02/27 04:16:32;;;;;;;;;;;;;;;7.76;95.92;95972.48;106837;1300;24338;-83
2024/02/27 04:18:58;;;;;;;;;;;;;;;7.71;96.20;95972.04;107062;1294;22570;-83
2024/02/27 04:21:24;;;;;;;;;;;;;;;7.65;96.21;95979.02;107109;1294;22528;-84
2024/02/27 04:23:51;;;;;;;;;;;;;;;7.65;96.54;95980.63;107137;1298;23194;-84
2024/02/27 04:26:17;;;;;;;;;;;;;;;7.65;96.57;95975.83;107119;1300;22611;-84
2024/02/27 04:28:43;;;;;;;;;;;;;;;7.63;96.70;95978.77;107077;1300;22536;-84
2024/02/27 04:31:10;;;;;;;;;;;;;;;7.63;97.20;95978.29;107110;1298;25434;-84
2024/02/27 04:33:37;;;;;;;;;;;;;;;7.58;97.57;95979.62;106909;1301;22558;-84
2024/02/27 04:36:06;;;;;;;;;;;;;;;7.60;97.60;95975.70;107057;1295;22563;-84
2024/02/27 04:38:33;;;;;;;;;;;;;;;7.62;97.69;95982.34;107150;1300;23135;-85
2024/02/27 04:40:59;;;;;;;;;;;;;;;7.64;97.97;95984.29;107147;1290;23165;-84
2024/02/27 04:43:26;;;;;;;;;;;;;;;7.66;98.14;95987.13;107013;1295;22540;-84
2024/02/27 04:45:52;;;;;;;;;;;;;;;7.66;98.32;95987.12;107100;1295;22499;-84
2024/02/27 04:48:18;;;;;;;;;;;;;;;7.64;98.70;95984.55;107122;1300;22724;-85
2024/02/27 04:50:45;;;;;;;;;;;;;;;7.60;98.81;95990.30;107064;1300;23018;-84
2024/02/27 04:53:11;;;;;;;;;;;;;;;7.58;98.84;95990.94;107104;1300;22525;-84
2024/02/27 04:55:38;;;;;;;;;;;;;;;7.55;98.71;95991.10;107122;1300;22526;-84
2024/02/27 04:58:04;;;;;;;;;;;;;;;7.53;98.61;95992.50;107111;1288;22526;-84
2024/02/27 05:00:31;;;;;;;;;;;;;;;7.51;98.72;95993.15;106828;1300;22550;-84
2024/02/27 05:02:57;;;;;;;;;;;;;;;7.49;98.68;95997.70;107193;1295;22529;-84
2024/02/27 05:05:24;;;;;;;;;;;;;;;7.48;98.80;96006.15;107034;1300;22536;-84
2024/02/27 05:07:50;;;;;;;;;;;;;;;7.48;99.02;96005.98;107019;1300;23114;-85
2024/02/27 05:10:17;;;;;;;;;;;;;;;7.47;99.23;96008.64;107018;1300;22527;-84
2024/02/27 05:12:43;;;;;;;;;;;;;;;7.43;99.30;96015.58;107102;1299;23210;-84
2024/02/27 05:15:09;;;;;;;;;;;;;;;7.44;99.62;96013.64;107086;1300;22532;-84
2024/02/27 05:17:36;;;;;;;;;;;;;;;7.44;99.94;96004.42;107089;1300;22834;-84
2024/02/27 05:20:03;;;;;;;;;;;;;;;7.44;100.00;96003.98;107069;1300;22553;-84
2024/02/27 05:22:29;;;;;;;;;;;;;;;7.43;100.00;95999.98;106880;1281;22563;-84
2024/02/27 05:24:56;;;;;;;;;;;;;;;7.43;100.00;96005.70;107049;1291;22569;-84
2024/02/27 05:27:22;;;;;;;;;;;;;;;7.43;100.00;96011.88;107047;1282;23399;-84
2024/02/27 05:29:48;;;;;;;;;;;;;;;7.44;100.00;96011.38;107061;1300;22540;-84
2024/02/27 05:32:15;;;;;;;;;;;;;;;7.46;100.00;96018.02;106887;1300;22529;-85
2024/02/27 05:34:41;;;;;;;;;;;;;;;7.47;100.00;96022.80;107168;1295;22576;-84
2024/02/27 05:37:08;;;;;;;;;;;;;;;7.47;100.00;96027.55;107104;1279;22531;-84
2024/02/27 05:39:34;;;;;;;;;;;;;;;7.49;100.00;96029.23;107070;1295;22552;-84
2024/02/27 05:42:02;;;;;;;;;;;;;;;7.51;100.00;96029.55;107075;1297;22644;-85
2024/02/27 05:44:28;;;;;;;;;;;;;;;7.53;100.00;96028.83;107055;1295;22579;-84
2024/02/27 05:46:54;;;;;;;;;;;;;;;7.56;100.00;96031.80;107050;1279;25499;-88
2024/02/27 05:49:21;;;;;;;;;;;;;;;7.59;100.00;96030.30;106905;1301;22562;-87
2024/02/27 05:51:48;;;;;;;;;;;;;;;7.62;100.00;96029.23;106989;1301;22631;-88
2024/02/27 05:54:14;;;;;;;;;;;;;;;7.65;100.00;96036.43;107006;1294;23916;-88
2024/02/27 05:56:41;;;;;;;;;;;;;;;7.69;100.00;96034.15;106867;1291;22587;-87
2024/02/27 05:59:07;;;;;;;;;;;;;;;7.73;100.00;96036.02;107056;1294;22955;-88
2024/02/27 06:01:34;;;;;;;;;;;;;;;7.80;100.00;96037.67;106883;1299;23648;-88
2024/02/27 06:04:00;;;;;;;;;;;;;;;7.85;100.00;96037.38;106977;1300;24952;-88
2024/02/27 06:06:27;;;;;;;;;;;;;;;7.89;100.00;96036.69;107125;1292;22672;-88
2024/02/27 06:08:53;;;;;;;;;;;;;;;7.94;100.00;96036.16;107123;1300;22544;-88
2024/02/27 06:11:19;;;;;;;;;;;;;;;7.98;100.00;96038.27;106940;1300;22526;-88
2024/02/27 06:13:46;;;;;;;;;;;;;;;8.04;100.00;96036.18;107012;1300;22526;-88
2024/02/27 06:16:12;;;;;;;;;;;;;;;8.11;100.00;96042.02;106990;1292;22651;-88
2024/02/27 06:18:42;;;;;;;;;;;;;;;8.15;100.00;96042.51;107112;1294;22527;-88
2024/02/27 06:23:54;;;;;;;;;;;;;;;8.24;100.00;96043.35;107202;1299;22728;-88
2024/02/27 06:26:21;;;;;;;;;;;;;;;8.27;100.00;96050.31;107065;1292;22553;-88
2024/02/27 06:28:47;;;;;;;;;;;;;;;8.29;100.00;96058.55;107087;1295;22487;-88
2024/02/27 06:31:14;;;;;;;;;;;;;;;8.33;100.00;96058.05;107128;1293;22587;-88
2024/02/27 06:33:41;;;;;;;;;;;;;;;8.41;100.00;96061.81;106948;1301;22532;-88
2024/02/27 06:36:08;;;;;;;;;;;;;;;8.44;100.00;96064.08;107145;1297;22609;-88
2024/02/27 06:38:34;;;;;;;;;;;;;;;8.47;100.00;96068.41;107092;1300;22543;-88
2024/02/27 06:41:00;;;;;;;;;;;;;;;8.50;100.00;96066.17;106911;1296;23380;-88
2024/02/27 06:43:27;;;;;;;;;;;;;;;8.52;100.00;96068.48;107137;1298;22569;-88
2024/02/27 06:45:54;;;;;;;;;;;;;;;8.60;100.00;96067.08;107055;1295;22527;-88
2024/02/27 06:48:21;;;;;;;;;;;;;;;8.73;100.00;96061.05;107008;1295;22552;-88
2024/02/27 06:50:51;;;;;;;;;;;;;;;8.80;100.00;96062.55;106728;1297;24883;-89
2024/02/27 06:53:17;;;;;;;;;;;;;;;8.82;100.00;96063.17;107104;1294;22520;-87
2024/02/27 06:55:45;;;;;;;;;;;;;;;8.83;100.00;96061.64;107096;1298;22579;-88
2024/02/27 06:58:12;;;;;;;;;;;;;;;8.85;100.00;96062.02;106916;1301;23755;-88
2024/02/27 07:00:38;;;;;;;;;;;;;;;8.88;100.00;96065.88;107117;1300;22581;-88
2024/02/27 07:03:04;;;;;;;;;;;;;;;8.91;100.00;96066.88;107030;1295;23300;-89
2024/02/27 07:05:31;;;;;;;;;;;;;;;8.94;100.00;96067.36;107068;1298;25259;-89
2024/02/27 07:07:57;;;;;;;;;;;;;;;8.98;100.00;96068.49;107077;1294;22555;-87
2024/02/27 07:10:24;;;;;;;;;;;;;;;9.03;100.00;96065.33;106841;1298;22695;-88
2024/02/27 07:12:50;;;;;;;;;;;;;;;9.09;100.00;96068.30;106905;1297;22681;-88
2024/02/27 07:15:17;;;;;;;;;;;;;;;9.11;100.00;96061.64;107033;1301;25408;-88
2024/02/27 07:17:43;;;;;;;;;;;;;;;9.13;100.00;96057.97;107003;1297;23291;-88
2024/02/27 07:20:11;;;;;;;;;;;;;;;9.13;100.00;96064.52;106913;1295;22559;-88
2024/02/27 07:22:37;;;;;;;;;;;;;;;9.15;100.00;96065.20;107012;1301;22643;-88
2024/02/27 07:25:04;;;;;;;;;;;;;;;9.16;100.00;96066.17;107013;1294;22527;-87
2024/02/27 07:27:31;;;;;;;;;;;;;;;9.17;100.00;96068.34;106814;1285;22566;-88
2024/02/27 07:29:57;;;;;;;;;;;;;;;9.18;100.00;96063.33;107167;1300;23340;-88
2024/02/27 07:32:24;;;;;;;;;;;;;;;9.21;100.00;96066.27;106934;1291;22570;-88
2024/02/27 07:34:51;;;;;;;;;;;;;;;9.27;100.00;96071.77;107016;1288;23901;-88
2024/02/27 07:37:18;;;;;;;;;;;;;;;9.35;100.00;96068.60;107036;1295;25409;-87
2024/02/27 07:39:45;;;;;;;;;;;;;;;9.45;100.00;96072.66;106934;1300;25099;-88
2024/02/27 07:42:12;;;;;;;;;;;;;;;9.63;100.00;96072.35;108271;1300;22417;-86
2024/02/27 07:44:38;;;;;;;;;;;;;;;9.88;100.00;96076.29;108245;1300;22570;-86
2024/02/27 07:47:05;;;;;;;;;;;;;;;10.07;100.00;96074.67;106854;1297;25415;-88
2024/02/27 07:49:31;;;;;;;;;;;;;;;10.15;100.00;96077.11;107002;1300;22579;-87
2024/02/27 07:51:57;;;;;;;;;;;;;;;10.33;100.00;96074.68;107016;1295;22556;-87
2024/02/27 07:54:24;;;;;;;;;;;;;;;10.46;100.00;96074.95;106950;1301;22565;-88
2024/02/27 07:56:50;;;;;;;;;;;;;;;10.58;100.00;96071.45;106843;1292;22534;-88
2024/02/27 07:59:17;;;;;;;;;;;;;;;10.66;100.00;96072.79;106958;1300;22555;-87
2024/02/27 08:01:43;;;;;;;;;;;;;;;10.75;100.00;96072.50;106827;1293;22577;-88
2024/02/27 08:04:09;;;;;;;;;;;;;;;10.82;100.00;96073.05;106956;1300;22540;-88
2024/02/27 08:06:38;;;;;;;;;;;;;;;10.93;99.97;96073.13;106966;1300;22557;-88
2024/02/27 08:09:05;;;;;;;;;;;;;;;11.06;98.14;96076.02;106919;1300;22555;-88
2024/02/27 08:11:31;;;;;;;;;;;;;;;11.20;96.89;96073.38;107041;1300;22535;-88
2024/02/27 08:14:00;;;;;;;;;;;;;;;11.30;96.54;96072.59;107169;1300;22557;-87
2024/02/27 08:16:26;;;;;;;;;;;;;;;11.39;95.63;96074.59;106890;1295;24183;-88
2024/02/27 08:18:53;;;;;;;;;;;;;;;11.47;95.36;96080.39;106743;1298;22613;-88
2024/02/27 08:21:19;;;;;;;;;;;;;;;11.50;94.91;96083.23;107028;1294;22606;-87
2024/02/27 08:23:46;;;;;;;;;;;;;;;11.56;94.76;96080.30;107093;1300;22575;-88
2024/02/27 08:26:12;;;;;;;;;;;;;;;11.61;93.72;96079.69;106919;1292;24334;-88
2024/02/27 08:28:39;;;;;;;;;;;;;;;11.71;92.91;96088.15;106974;1300;23898;-88
2024/02/27 08:31:05;;;;;;;;;;;;;;;11.83;92.73;96081.44;106964;1292;22544;-87
2024/02/27 08:33:33;;;;;;;;;;;;;;;11.93;92.65;96086.21;106902;1300;23321;-87
2024/02/27 08:35:59;;;;;;;;;;;;;;;12.02;91.83;96086.50;107023;1300;22567;-88
2024/02/27 08:38:26;;;;;;;;;;;;;;;12.14;90.27;96086.00;106976;1292;22642;-88
2024/02/27 08:40:52;;;;;;;;;;;;;;;12.24;89.57;96094.89;107041;1300;23766;-87
2024/02/27 08:43:19;;;;;;;;;;;;;;;12.34;90.14;96093.92;106993;1291;22562;-87
2024/02/27 08:45:45;;;;;;;;;;;;;;;12.43;88.51;96096.02;106985;1298;25284;-88
2024/02/27 08:48:12;;;;;;;;;;;;;;;12.56;88.53;96096.10;107035;1300;22556;-88
2024/02/27 08:50:38;;;;;;;;;;;;;;;12.69;87.98;96100.55;107046;1300;22563;-88
2024/02/27 08:53:05;;;;;;;;;;;;;;;12.81;85.85;96104.61;106947;1291;22579;-88
2024/02/27 08:55:32;;;;;;;;;;;;;;;12.91;85.76;96104.73;107151;1300;22536;-88
2024/02/27 08:57:58;;;;;;;;;;;;;;;13.01;84.99;96105.45;106978;1298;23414;-88
2024/02/27 09:00:25;;;;;;;;;;;;;;;13.10;82.45;96099.36;106933;1300;22562;-87
2024/02/27 09:02:52;;;;;;;;;;;;;;;13.17;83.68;96101.59;106980;1300;24166;-88
2024/02/27 09:05:19;;;;;;;;;;;;;;;13.25;82.97;96104.78;107193;1300;22575;-89
2024/02/27 09:07:45;;;;;;;;;;;;;;;13.32;83.78;96103.32;107178;1300;24189;-88
2024/02/27 09:10:12;;;;;;;;;;;;;;;13.38;82.95;96108.02;106898;1300;22540;-87
2024/02/27 09:12:38;;;;;;;;;;;;;;;13.44;82.78;96112.11;107019;1291;24289;-88
2024/02/27 09:15:05;;;;;;;;;;;;;;;13.48;80.88;96108.80;107003;1298;25434;-88
2024/02/27 09:17:32;;;;;;;;;;;;;;;13.54;81.34;96112.58;107178;1300;24818;-88
2024/02/27 09:19:59;;;;;;;;;;;;;;;13.60;79.58;96116.88;106775;1296;569104;-88
2024/02/27 09:22:31;;;;;;;;;;;;;;;13.65;80.45;96114.45;107021;1300;23000;-87
2024/02/27 09:24:57;;;;;;;;;;;;;;;13.71;80.51;96111.10;106999;1295;23317;-88
2024/02/27 09:27:24;;;;;;;;;;;;;;;13.74;80.30;96113.69;107139;1296;22568;-88
2024/02/27 09:29:51;;;;;;;;;;;;;;;13.79;79.76;96114.10;107042;1298;22602;-87
2024/02/27 09:32:20;;;;;;;;;;;;;;;13.84;79.23;96119.20;107019;1294;22545;-88
2024/02/27 09:34:47;;;;;;;;;;;;;;;13.90;77.94;96117.48;106922;1300;22636;-88
2024/02/27 09:37:13;;;;;;;;;;;;;;;13.93;78.71;96117.98;107048;1295;22613;-88
2024/02/27 09:39:40;;;;;;;;;;;;;;;13.96;78.62;96113.73;107033;1291;22558;-88
2024/02/27 09:42:10;;;;;;;;;;;;;;;13.97;78.05;96115.10;106875;1300;22527;-87
2024/02/27 09:44:37;;;;;;;;;;;;;;;14.03;77.94;96118.74;106930;1295;22577;-88
2024/02/27 09:47:05;;;;;;;;;;;;;;;14.04;76.15;96120.66;106835;1300;23366;-88
2024/02/27 09:49:33;;;;;;;;;;;;;;;14.07;77.02;96119.63;107068;1295;24234;-88
2024/02/27 09:52:00;;;;;;;;;;;;;;;14.11;76.94;96121.94;106903;1300;22523;-88
2024/02/27 09:54:26;;;;;;;;;;;;;;;14.12;76.38;96116.55;106943;1298;22571;-88
2024/02/27 09:56:53;;;;;;;;;;;;;;;14.13;76.49;96118.17;106876;1300;22547;-88
2024/02/27 09:59:20;;;;;;;;;;;;;;;14.15;76.04;96117.74;106927;1300;22554;-88
2024/02/27 10:01:47;;;;;;;;;;;;;;;14.19;75.09;96114.39;106932;1300;22523;-88
2024/02/27 10:04:13;;;;;;;;;;;;;;;14.22;75.34;96122.56;106978;1300;22586;-88
2024/02/27 10:06:40;;;;;;;;;;;;;;;14.25;75.50;96124.55;107135;1294;22513;-88
2024/02/27 10:09:08;;;;;;;;;;;;;;;14.30;75.71;96119.60;107067;1295;22576;-88
2024/02/27 10:11:34;;;;;;;;;;;;;;;14.35;72.98;96132.73;107081;1294;22552;-88
2024/02/27 10:14:01;;;;;;;;;;;;;;;14.37;74.43;96126.65;107035;1301;22534;-87
2024/02/27 10:16:27;;;;;;;;;;;;;;;14.40;74.61;96127.83;106974;1294;22768;-88
2024/02/27 10:18:54;;;;;;;;;;;;;;;14.46;73.77;96131.84;106968;1295;22537;-88
2024/02/27 10:21:20;;;;;;;;;;;;;;;14.49;74.05;96134.48;107087;1298;22607;-88
2024/02/27 10:23:47;;;;;;;;;;;;;;;14.53;74.80;96129.59;106918;1301;24231;-87
2024/02/27 10:26:14;;;;;;;;;;;;;;;14.57;74.01;96129.20;107072;1298;23880;-87
2024/02/27 10:28:41;;;;;;;;;;;;;;;14.60;71.94;96124.98;106915;1300;22580;-88
2024/02/27 10:31:07;;;;;;;;;;;;;;;14.58;72.39;96123.40;107124;1300;22616;-88
2024/02/27 10:33:37;;;;;;;;;;;;;;;14.55;72.29;96124.27;106875;1299;25439;-88
2024/02/27 10:36:04;;;;;;;;;;;;;;;14.53;72.01;96125.52;106978;1300;22573;-88
2024/02/27 10:38:31;;;;;;;;;;;;;;;14.54;72.03;96123.67;106961;1300;24935;-88
2024/02/27 10:40:58;;;;;;;;;;;;;;;14.57;72.27;96117.52;106986;1300;22601;-87
2024/02/27 10:43:24;;;;;;;;;;;;;;;14.63;72.41;96116.95;107072;1300;25312;-88
2024/02/27 10:45:51;;;;;;;;;;;;;;;14.71;72.81;96116.61;106875;1300;22544;-88
2024/02/27 10:48:18;;;;;;;;;;;;;;;14.78;72.24;96111.07;107036;1300;23400;-87
2024/02/27 10:50:44;;;;;;;;;;;;;;;14.83;71.83;96112.41;106972;1300;22610;-88
2024/02/27 10:53:11;;;;;;;;;;;;;;;14.88;71.23;96116.27;107061;1298;22589;-88
2024/02/27 10:55:37;;;;;;;;;;;;;;;14.94;70.82;96112.83;107065;1295;24411;-88
2024/02/27 10:58:04;;;;;;;;;;;;;;;14.96;70.40;96111.07;106965;1300;22550;-88
2024/02/27 11:00:30;;;;;;;;;;;;;;;14.98;69.10;96118.16;107075;1300;22601;-87
2024/02/27 11:02:57;;;;;;;;;;;;;;;15.01;70.08;96117.49;107077;1300;22568;-88
2024/02/27 11:05:26;;;;;;;;;;;;;;;15.05;70.20;96115.35;107004;1300;22523;-88
2024/02/27 11:07:54;;;;;;;;;;;;;;;15.11;69.18;96117.81;107032;1294;22573;-88
2024/02/27 11:10:29;;;;;;;;;;;;;;;15.13;68.14;96112.59;106937;1292;22938;-87
2024/02/27 11:12:56;;;;;;;;;;;;;;;15.15;67.48;96115.30;107004;1300;22575;-88
2024/02/27 11:15:23;;;;;;;;;;;;;;;15.18;68.86;96112.94;106988;1295;23341;-88
2024/02/27 11:17:51;;;;;;;;;;;;;;;15.22;66.87;96115.50;107041;1298;22646;-88
2024/02/27 11:20:17;;;;;;;;;;;;;;;15.24;67.13;96118.75;107003;1300;22599;-88
2024/02/27 11:22:44;;;;;;;;;;;;;;;15.25;68.02;96114.69;106896;1292;23905;-89
2024/02/27 11:25:11;;;;;;;;;;;;;;;15.27;67.51;96117.75;107195;1300;22542;-88
2024/02/27 11:27:37;;;;;;;;;;;;;;;15.31;66.94;96119.69;106961;1292;22564;-88
2024/02/27 11:30:05;;;;;;;;;;;;;;;15.38;66.18;96122.63;106922;1301;23262;-88
2024/02/27 11:32:32;;;;;;;;;;;;;;;15.47;66.64;96120.79;108306;1298;22565;-88
2024/02/27 11:35:01;;;;;;;;;;;;;;;15.55;66.75;96114.90;108217;1297;23322;-89
2024/02/27 11:37:28;;;;;;;;;;;;;;;15.63;66.57;96117.75;108281;1300;23213;-88
2024/02/27 11:39:55;;;;;;;;;;;;;;;15.72;66.33;96122.29;108425;1293;22406;-89
2024/02/27 11:42:37;;;;;;;;;;;;;;;15.80;65.49;96117.76;108227;1297;22513;-88
2024/02/27 11:45:05;;;;;;;;;;;;;;;15.85;65.55;96117.89;108244;1298;22490;-89
2024/02/27 11:47:34;;;;;;;;;;;;;;;15.87;65.73;96117.33;108062;1301;22418;-89
2024/02/27 11:50:01;;;;;;;;;;;;;;;15.94;65.48;96122.36;108388;1300;22441;-89
2024/02/27 11:52:33;;;;;;;;;;;;;;;16.00;66.22;96118.66;108226;1295;22445;-89
2024/02/27 11:55:07;;;;;;;;;;;;;;;16.08;66.03;96123.79;108253;1300;22505;-88
2024/02/27 11:57:33;;;;;;;;;;;;;;;16.13;64.53;96120.67;108030;1298;22566;-88
2024/02/27 12:00:06;;;;;;;;;;;;;;;16.14;63.33;96119.67;107046;1298;22555;-88
2024/02/27 12:02:36;;;;;;;;;;;;;;;16.18;65.14;96124.91;107051;1300;22594;-88
2024/02/27 12:05:07;;;;;;;;;;;;;;;16.25;65.80;96123.27;106982;1300;22555;-88
2024/02/27 12:07:34;;;;;;;;;;;;;;;16.32;64.85;96120.00;107148;1300;22660;-88
2024/02/27 12:10:08;;;;;;;;;;;;;;;16.36;64.88;96124.82;107117;1297;25360;-88
2024/02/27 12:12:58;;;;;;;;;;;;;;;16.40;63.54;96127.33;106876;1300;23277;-88
2024/02/27 12:15:26;;;;;;;;;;;;;;;16.43;63.38;96124.02;106595;1304;22539;-88
2024/02/27 12:17:53;;;;;;;;;;;;;;;16.48;62.69;96121.10;106574;1304;22590;-88
2024/02/27 12:20:19;;;;;;;;;;;;;;;16.53;62.21;96116.17;106396;1297;22560;-88
2024/02/27 12:22:46;;;;;;;;;;;;;;;16.53;62.43;96116.55;106692;1304;24199;-88
2024/02/27 12:25:15;;;;;;;;;;;;;;;16.56;62.51;96113.55;106378;1304;22572;-88
2024/02/27 12:27:42;;;;;;;;;;;;;;;16.56;62.64;96114.35;106464;1304;22654;-88
2024/02/27 12:30:11;;;;;;;;;;;;;;;16.55;62.44;96118.20;106587;1304;22731;-88
2024/02/27 12:32:42;;;;;;;;;;;;;;;16.50;61.40;96121.63;106638;1301;22619;-88
2024/02/27 12:35:12;;;;;;;;;;;;;;;16.43;61.39;96122.28;106551;1304;25415;-87
2024/02/27 12:37:40;;;;;;;;;;;;;;;16.38;61.91;96121.72;106379;1300;22571;-88
2024/02/27 12:40:10;;;;;;;;;;;;;;;16.35;61.83;96120.23;107824;1299;22430;-89
2024/02/27 12:42:39;;;;;;;;;;;;;;;16.32;62.01;96121.05;107225;1304;23031;-88